sensor_id;sensor_type;location;lat;lon;timestamp;temperature;humidity
13091;DHT22;6611;52.604;13.438;2023-12-20T00:00:07;7.62;90.20
13091;DHT22;6611;52.604;13.438;2023-12-20T00:05:10;7.58;90.29
13091;DHT22;6611;52.604;13.438;2023-12-20T00:10:12;7.57;90.45
13091;DHT22;6611;52.604;13.438;2023-12-20T00:15:14;7.58;90.33
13091;DHT22;6611;52.604;13.438;2023-12-20T00:20:17;7.47;90.63
13091;DHT22;6611;52.604;13.438;2023-12-20T00:25:19;7.58;90.42
13091;DHT22;6611;52.604;13.438;2023-12-20T00:30:21;7.57;90.32
13091;DHT22;6611;52.604;13.438;2023-12-20T00:35:24;7.48;90.55
13091;DHT22;6611;52.604;13.438;2023-12-20T00:40:26;7.55;90.47
13091;DHT22;6611;52.604;13.438;2023-12-20T00:45:28;7.46;90.65
13091;DHT22;6611;52.604;13.438;2023-12-20T00:50:31;7.48;90.66
13091;DHT22;6611;52.604;13.438;2023-12-20T00:55:32;7.57;90.46
13091;DHT22;6611;52.604;13.438;2023-12-20T01:00:34;7.54;90.62
13091;DHT22;6611;52.604;13.438;2023-12-20T01:05:37;7.62;90.39
13091;DHT22;6611;52.604;13.438;2023-12-20T01:10:39;7.61;90.07
13091;DHT22;6611;52.604;13.438;2023-12-20T01:15:41;7.51;90.34
13091;DHT22;6611;52.604;13.438;2023-12-20T01:20:45;7.54;90.48
13091;DHT22;6611;52.604;13.438;2023-12-20T01:25:46;7.51;90.93
13091;DHT22;6611;52.604;13.438;2023-12-20T01:30:48;7.52;90.48
13091;DHT22;6611;52.604;13.438;2023-12-20T01:35:51;7.52;90.66
13091;DHT22;6611;52.604;13.438;2023-12-20T01:40:52;7.62;90.29
13091;DHT22;6611;52.604;13.438;2023-12-20T01:45:55;7.51;90.53
13091;DHT22;6611;52.604;13.438;2023-12-20T01:50:59;7.51;90.49
13091;DHT22;6611;52.604;13.438;2023-12-20T01:56:01;7.41;90.71
13091;DHT22;6611;52.604;13.438;2023-12-20T02:01:03;7.54;90.37
13091;DHT22;6611;52.604;13.438;2023-12-20T02:06:06;7.44;90.54
13091;DHT22;6611;52.604;13.438;2023-12-20T02:11:08;7.54;90.07
13091;DHT22;6611;52.604;13.438;2023-12-20T02:16:11;7.51;90.22
13091;DHT22;6611;52.604;13.438;2023-12-20T02:21:14;7.41;90.36
13091;DHT22;6611;52.604;13.438;2023-12-20T02:26:17;7.52;89.81
13091;DHT22;6611;52.604;13.438;2023-12-20T02:31:20;7.51;89.32
13091;DHT22;6611;52.604;13.438;2023-12-20T02:36:22;7.41;89.49
13091;DHT22;6611;52.604;13.438;2023-12-20T02:41:25;7.43;89.20
13091;DHT22;6611;52.604;13.438;2023-12-20T02:46:27;7.44;88.93
13091;DHT22;6611;52.604;13.438;2023-12-20T02:51:28;7.35;89.14
13091;DHT22;6611;52.604;13.438;2023-12-20T02:56:32;7.27;89.18
13091;DHT22;6611;52.604;13.438;2023-12-20T03:01:34;7.27;89.36
13091;DHT22;6611;52.604;13.438;2023-12-20T03:06:35;7.20;89.50
13091;DHT22;6611;52.604;13.438;2023-12-20T03:11:38;7.23;89.19
13091;DHT22;6611;52.604;13.438;2023-12-20T03:16:40;7.16;89.14
13091;DHT22;6611;52.604;13.438;2023-12-20T03:21:42;7.09;88.99
13091;DHT22;6611;52.604;13.438;2023-12-20T03:26:45;7.10;88.66
13091;DHT22;6611;52.604;13.438;2023-12-20T03:31:46;7.06;88.68
13091;DHT22;6611;52.604;13.438;2023-12-20T03:36:48;6.98;88.75
13091;DHT22;6611;52.604;13.438;2023-12-20T03:41:51;6.98;88.58
13091;DHT22;6611;52.604;13.438;2023-12-20T03:46:52;6.84;89.12
13091;DHT22;6611;52.604;13.438;2023-12-20T03:51:54;6.78;89.12
13091;DHT22;6611;52.604;13.438;2023-12-20T03:56:57;6.78;89.30
13091;DHT22;6611;52.604;13.438;2023-12-20T04:01:59;6.84;89.18
13091;DHT22;6611;52.604;13.438;2023-12-20T04:07:00;6.84;88.90
13091;DHT22;6611;52.604;13.438;2023-12-20T04:12:04;6.81;88.89
13091;DHT22;6611;52.604;13.438;2023-12-20T04:17:06;6.79;88.65
13091;DHT22;6611;52.604;13.438;2023-12-20T04:22:08;6.85;88.52
13091;DHT22;6611;52.604;13.438;2023-12-20T04:27:11;6.81;88.52
13091;DHT22;6611;52.604;13.438;2023-12-20T04:32:12;6.71;88.52
13091;DHT22;6611;52.604;13.438;2023-12-20T04:37:14;6.74;88.59
13091;DHT22;6611;52.604;13.438;2023-12-20T04:42:17;6.67;88.55
13091;DHT22;6611;52.604;13.438;2023-12-20T04:47:19;6.63;88.58
13091;DHT22;6611;52.604;13.438;2023-12-20T04:52:20;6.65;88.33
13091;DHT22;6611;52.604;13.438;2023-12-20T04:57:23;6.60;88.32
13091;DHT22;6611;52.604;13.438;2023-12-20T05:02:25;6.50;88.49
13091;DHT22;6611;52.604;13.438;2023-12-20T05:07:27;6.53;88.25
13091;DHT22;6611;52.604;13.438;2023-12-20T05:12:30;6.50;88.38
13091;DHT22;6611;52.604;13.438;2023-12-20T05:17:31;6.50;88.25
13091;DHT22;6611;52.604;13.438;2023-12-20T05:22:33;6.45;87.85
13091;DHT22;6611;52.604;13.438;2023-12-20T05:27:36;6.30;88.15
13091;DHT22;6611;52.604;13.438;2023-12-20T05:32:38;6.33;88.04
13091;DHT22;6611;52.604;13.438;2023-12-20T05:37:39;6.16;88.55
13091;DHT22;6611;52.604;13.438;2023-12-20T05:42:42;6.19;88.01
13091;DHT22;6611;52.604;13.438;2023-12-20T05:47:44;6.05;88.09
13091;DHT22;6611;52.604;13.438;2023-12-20T05:52:46;6.03;87.88
13091;DHT22;6611;52.604;13.438;2023-12-20T05:57:49;6.10;87.64
13091;DHT22;6611;52.604;13.438;2023-12-20T06:02:50;6.02;87.66
13091;DHT22;6611;52.604;13.438;2023-12-20T06:07:52;5.99;87.90
13091;DHT22;6611;52.604;13.438;2023-12-20T06:12:56;5.91;88.44
13091;DHT22;6611;52.604;13.438;2023-12-20T06:17:59;5.91;88.49
13091;DHT22;6611;52.604;13.438;2023-12-20T06:23:00;5.99;87.76
13091;DHT22;6611;52.604;13.438;2023-12-20T06:28:04;5.98;87.12
13091;DHT22;6611;52.604;13.438;2023-12-20T06:33:06;5.88;87.49
13091;DHT22;6611;52.604;13.438;2023-12-20T06:38:10;5.90;87.97
13091;DHT22;6611;52.604;13.438;2023-12-20T06:43:13;5.90;87.70
13091;DHT22;6611;52.604;13.438;2023-12-20T06:48:15;5.87;87.59
13091;DHT22;6611;52.604;13.438;2023-12-20T06:53:16;5.87;87.78
13091;DHT22;6611;52.604;13.438;2023-12-20T06:58:19;5.92;87.63
13091;DHT22;6611;52.604;13.438;2023-12-20T07:03:21;5.91;87.72
13091;DHT22;6611;52.604;13.438;2023-12-20T07:08:22;5.88;87.88
13091;DHT22;6611;52.604;13.438;2023-12-20T07:13:25;5.91;87.55
13091;DHT22;6611;52.604;13.438;2023-12-20T07:18:27;5.92;87.56
13091;DHT22;6611;52.604;13.438;2023-12-20T07:23:29;5.97;87.71
13091;DHT22;6611;52.604;13.438;2023-12-20T07:28:32;5.90;87.46
13091;DHT22;6611;52.604;13.438;2023-12-20T07:33:33;5.92;87.87
13091;DHT22;6611;52.604;13.438;2023-12-20T07:38:35;5.91;87.62
13091;DHT22;6611;52.604;13.438;2023-12-20T07:43:38;5.94;87.20
13091;DHT22;6611;52.604;13.438;2023-12-20T07:48:40;6.02;87.08
13091;DHT22;6611;52.604;13.438;2023-12-20T07:53:42;6.06;87.14
13091;DHT22;6611;52.604;13.438;2023-12-20T07:58:46;6.02;87.03
13091;DHT22;6611;52.604;13.438;2023-12-20T08:03:48;6.01;87.20
13091;DHT22;6611;52.604;13.438;2023-12-20T08:08:50;6.26;88.42
13091;DHT22;6611;52.604;13.438;2023-12-20T08:13:53;6.36;85.75
13091;DHT22;6611;52.604;13.438;2023-12-20T08:18:55;6.23;86.02
13091;DHT22;6611;52.604;13.438;2023-12-20T08:23:56;6.09;86.41
13091;DHT22;6611;52.604;13.438;2023-12-20T08:28:59;6.13;86.68
13091;DHT22;6611;52.604;13.438;2023-12-20T08:34:01;6.15;86.66
13091;DHT22;6611;52.604;13.438;2023-12-20T08:39:02;6.10;86.05
13091;DHT22;6611;52.604;13.438;2023-12-20T08:44:09;6.17;86.25
13091;DHT22;6611;52.604;13.438;2023-12-20T08:49:10;6.30;86.61
13091;DHT22;6611;52.604;13.438;2023-12-20T08:54:12;6.45;85.64
13091;DHT22;6611;52.604;13.438;2023-12-20T08:59:15;6.38;85.36
13091;DHT22;6611;52.604;13.438;2023-12-20T09:04:19;6.29;85.43
13091;DHT22;6611;52.604;13.438;2023-12-20T09:09:20;6.27;85.44
13091;DHT22;6611;52.604;13.438;2023-12-20T09:14:23;6.45;85.19
13091;DHT22;6611;52.604;13.438;2023-12-20T09:19:25;6.57;84.35
13091;DHT22;6611;52.604;13.438;2023-12-20T09:24:26;6.54;84.68
13091;DHT22;6611;52.604;13.438;2023-12-20T09:29:29;6.54;84.21
13091;DHT22;6611;52.604;13.438;2023-12-20T09:34:31;6.57;85.12
13091;DHT22;6611;52.604;13.438;2023-12-20T09:39:33;6.57;83.70
13091;DHT22;6611;52.604;13.438;2023-12-20T09:44:36;6.63;84.39
13091;DHT22;6611;52.604;13.438;2023-12-20T09:49:43;6.74;84.68
13091;DHT22;6611;52.604;13.438;2023-12-20T09:54:47;6.68;85.05
13091;DHT22;6611;52.604;13.438;2023-12-20T09:59:52;6.71;84.41
13091;DHT22;6611;52.604;13.438;2023-12-20T10:04:54;6.75;83.19
13091;DHT22;6611;52.604;13.438;2023-12-20T10:09:56;6.65;83.25
13091;DHT22;6611;52.604;13.438;2023-12-20T10:14:59;6.60;84.03
13091;DHT22;6611;52.604;13.438;2023-12-20T10:20:01;6.68;84.26
13091;DHT22;6611;52.604;13.438;2023-12-20T10:25:03;6.79;83.13
13091;DHT22;6611;52.604;13.438;2023-12-20T10:30:07;6.79;83.46
13091;DHT22;6611;52.604;13.438;2023-12-20T10:35:09;6.74;83.13
13091;DHT22;6611;52.604;13.438;2023-12-20T10:40:12;6.82;83.33
13091;DHT22;6611;52.604;13.438;2023-12-20T10:45:16;6.78;83.29
13091;DHT22;6611;52.604;13.438;2023-12-20T10:50:19;6.84;83.77
13091;DHT22;6611;52.604;13.438;2023-12-20T10:55:20;6.93;83.36
13091;DHT22;6611;52.604;13.438;2023-12-20T11:00:24;6.91;82.49
13091;DHT22;6611;52.604;13.438;2023-12-20T11:05:31;6.87;82.57
13091;DHT22;6611;52.604;13.438;2023-12-20T11:10:42;6.96;81.38
13091;DHT22;6611;52.604;13.438;2023-12-20T11:15:46;7.03;81.23
13091;DHT22;6611;52.604;13.438;2023-12-20T11:20:49;6.96;82.24
13091;DHT22;6611;52.604;13.438;2023-12-20T11:25:53;6.93;82.38
13091;DHT22;6611;52.604;13.438;2023-12-20T11:30:57;6.93;82.70
13091;DHT22;6611;52.604;13.438;2023-12-20T11:35:59;6.84;83.48
13091;DHT22;6611;52.604;13.438;2023-12-20T11:41:05;6.81;84.59
13091;DHT22;6611;52.604;13.438;2023-12-20T11:46:09;6.74;84.07
13091;DHT22;6611;52.604;13.438;2023-12-20T11:51:11;6.85;83.96
13091;DHT22;6611;52.604;13.438;2023-12-20T11:56:13;6.92;83.70
13091;DHT22;6611;52.604;13.438;2023-12-20T12:01:16;7.05;83.56
13091;DHT22;6611;52.604;13.438;2023-12-20T12:06:18;7.17;82.85
13091;DHT22;6611;52.604;13.438;2023-12-20T12:11:19;7.20;82.03
13091;DHT22;6611;52.604;13.438;2023-12-20T12:16:22;7.16;82.18
13091;DHT22;6611;52.604;13.438;2023-12-20T12:21:25;7.07;82.87
13091;DHT22;6611;52.604;13.438;2023-12-20T12:26:30;6.89;84.63
13091;DHT22;6611;52.604;13.438;2023-12-20T12:31:33;6.87;84.55
13091;DHT22;6611;52.604;13.438;2023-12-20T12:36:34;6.72;85.65
13091;DHT22;6611;52.604;13.438;2023-12-20T12:41:36;6.74;85.11
13091;DHT22;6611;52.604;13.438;2023-12-20T12:46:39;6.70;86.53
13091;DHT22;6611;52.604;13.438;2023-12-20T12:51:41;6.57;86.73
13091;DHT22;6611;52.604;13.438;2023-12-20T12:56:43;6.54;86.50
13091;DHT22;6611;52.604;13.438;2023-12-20T13:01:46;6.55;87.02
13091;DHT22;6611;52.604;13.438;2023-12-20T13:06:48;6.54;87.67
13091;DHT22;6611;52.604;13.438;2023-12-20T13:11:50;6.58;87.68
13091;DHT22;6611;52.604;13.438;2023-12-20T13:16:53;6.53;87.42
13091;DHT22;6611;52.604;13.438;2023-12-20T13:21:55;6.50;86.60
13091;DHT22;6611;52.604;13.438;2023-12-20T13:26:57;6.43;88.06
13091;DHT22;6611;52.604;13.438;2023-12-20T13:32:00;6.44;87.79
13091;DHT22;6611;52.604;13.438;2023-12-20T13:37:01;6.43;87.32
13091;DHT22;6611;52.604;13.438;2023-12-20T13:42:05;6.37;87.04
13091;DHT22;6611;52.604;13.438;2023-12-20T13:47:08;6.45;86.34
13091;DHT22;6611;52.604;13.438;2023-12-20T13:52:09;6.38;85.51
13091;DHT22;6611;52.604;13.438;2023-12-20T13:57:11;6.32;85.39
13091;DHT22;6611;52.604;13.438;2023-12-20T14:02:14;6.25;85.38
13091;DHT22;6611;52.604;13.438;2023-12-20T14:07:16;6.20;85.28
13091;DHT22;6611;52.604;13.438;2023-12-20T14:12:18;6.13;85.73
13091;DHT22;6611;52.604;13.438;2023-12-20T14:17:22;6.08;84.83
13091;DHT22;6611;52.604;13.438;2023-12-20T14:22:23;6.10;83.89
13091;DHT22;6611;52.604;13.438;2023-12-20T14:27:26;6.01;83.16
13091;DHT22;6611;52.604;13.438;2023-12-20T14:32:29;6.06;82.88
13091;DHT22;6611;52.604;13.438;2023-12-20T14:37:31;5.99;82.91
13091;DHT22;6611;52.604;13.438;2023-12-20T14:42:32;5.94;82.32
13091;DHT22;6611;52.604;13.438;2023-12-20T14:47:36;5.91;82.29
13091;DHT22;6611;52.604;13.438;2023-12-20T14:52:38;5.94;82.10
13091;DHT22;6611;52.604;13.438;2023-12-20T14:57:39;5.87;82.74
13091;DHT22;6611;52.604;13.438;2023-12-20T15:02:42;5.84;83.80
13091;DHT22;6611;52.604;13.438;2023-12-20T15:07:44;5.85;83.47
13091;DHT22;6611;52.604;13.438;2023-12-20T15:12:47;5.81;83.93
13091;DHT22;6611;52.604;13.438;2023-12-20T15:17:50;5.81;83.65
13091;DHT22;6611;52.604;13.438;2023-12-20T15:22:52;5.87;83.18
13091;DHT22;6611;52.604;13.438;2023-12-20T15:27:55;5.75;83.32
13091;DHT22;6611;52.604;13.438;2023-12-20T15:32:58;5.74;83.92
13091;DHT22;6611;52.604;13.438;2023-12-20T15:38:00;5.67;84.44
13091;DHT22;6611;52.604;13.438;2023-12-20T15:43:03;5.70;83.82
13091;DHT22;6611;52.604;13.438;2023-12-20T15:48:06;5.67;83.88
13091;DHT22;6611;52.604;13.438;2023-12-20T15:53:10;5.65;83.61
13091;DHT22;6611;52.604;13.438;2023-12-20T15:58:11;5.61;83.68
13091;DHT22;6611;52.604;13.438;2023-12-20T16:03:14;5.48;84.30
13091;DHT22;6611;52.604;13.438;2023-12-20T16:08:16;5.46;84.26
13091;DHT22;6611;52.604;13.438;2023-12-20T16:13:18;5.40;84.57
13091;DHT22;6611;52.604;13.438;2023-12-20T16:18:21;5.48;83.84
13091;DHT22;6611;52.604;13.438;2023-12-20T16:23:23;5.50;83.75
13091;DHT22;6611;52.604;13.438;2023-12-20T16:28:26;5.48;83.27
13091;DHT22;6611;52.604;13.438;2023-12-20T16:33:29;5.42;83.31
13091;DHT22;6611;52.604;13.438;2023-12-20T16:38:30;5.39;83.62
13091;DHT22;6611;52.604;13.438;2023-12-20T16:43:32;5.40;83.36
13091;DHT22;6611;52.604;13.438;2023-12-20T16:48:35;5.39;83.14
13091;DHT22;6611;52.604;13.438;2023-12-20T16:53:36;5.40;83.50
13091;DHT22;6611;52.604;13.438;2023-12-20T16:58:38;5.35;83.51
13091;DHT22;6611;52.604;13.438;2023-12-20T17:03:41;5.32;84.28
13091;DHT22;6611;52.604;13.438;2023-12-20T17:08:43;5.40;83.62
13091;DHT22;6611;52.604;13.438;2023-12-20T17:13:44;5.42;83.34
13091;DHT22;6611;52.604;13.438;2023-12-20T17:18:47;5.32;84.02
13091;DHT22;6611;52.604;13.438;2023-12-20T17:23:50;5.39;83.30
13091;DHT22;6611;52.604;13.438;2023-12-20T17:28:51;5.39;83.38
13091;DHT22;6611;52.604;13.438;2023-12-20T17:33:54;5.79;84.37
13091;DHT22;6611;52.604;13.438;2023-12-20T17:38:56;6.26;82.46
13091;DHT22;6611;52.604;13.438;2023-12-20T17:43:57;6.50;81.04
13091;DHT22;6611;52.604;13.438;2023-12-20T17:49:00;6.53;80.72
13091;DHT22;6611;52.604;13.438;2023-12-20T17:54:02;6.30;80.38
13091;DHT22;6611;52.604;13.438;2023-12-20T17:59:04;6.27;81.54
13091;DHT22;6611;52.604;13.438;2023-12-20T18:04:07;6.27;81.70
13091;DHT22;6611;52.604;13.438;2023-12-20T18:09:09;6.33;81.86
13091;DHT22;6611;52.604;13.438;2023-12-20T18:14:11;6.47;81.26
13091;DHT22;6611;52.604;13.438;2023-12-20T18:19:14;6.71;81.22
13091;DHT22;6611;52.604;13.438;2023-12-20T18:24:17;6.53;80.85
13091;DHT22;6611;52.604;13.438;2023-12-20T18:29:18;6.70;80.70
13091;DHT22;6611;52.604;13.438;2023-12-20T18:34:21;6.68;80.70
13091;DHT22;6611;52.604;13.438;2023-12-20T18:39:24;6.74;80.16
13091;DHT22;6611;52.604;13.438;2023-12-20T18:44:25;6.79;80.22
13091;DHT22;6611;52.604;13.438;2023-12-20T18:49:29;6.71;79.97
13091;DHT22;6611;52.604;13.438;2023-12-20T18:54:30;6.71;79.90
13091;DHT22;6611;52.604;13.438;2023-12-20T18:59:32;6.32;80.22
13091;DHT22;6611;52.604;13.438;2023-12-20T19:04:35;6.15;80.85
13091;DHT22;6611;52.604;13.438;2023-12-20T19:09:36;6.05;81.56
13091;DHT22;6611;52.604;13.438;2023-12-20T19:14:38;5.94;82.94
13091;DHT22;6611;52.604;13.438;2023-12-20T19:19:41;5.81;84.39
13091;DHT22;6611;52.604;13.438;2023-12-20T19:24:43;5.68;85.52
13091;DHT22;6611;52.604;13.438;2023-12-20T19:29:45;5.64;86.18
13091;DHT22;6611;52.604;13.438;2023-12-20T19:34:48;5.63;86.16
13091;DHT22;6611;52.604;13.438;2023-12-20T19:39:50;5.73;85.57
13091;DHT22;6611;52.604;13.438;2023-12-20T19:44:52;5.73;84.80
13091;DHT22;6611;52.604;13.438;2023-12-20T19:49:55;5.74;85.67
13091;DHT22;6611;52.604;13.438;2023-12-20T19:54:57;5.63;86.67
13091;DHT22;6611;52.604;13.438;2023-12-20T19:59:59;5.61;86.99
13091;DHT22;6611;52.604;13.438;2023-12-20T20:05:03;5.65;86.90
13091;DHT22;6611;52.604;13.438;2023-12-20T20:10:07;5.70;86.07
13091;DHT22;6611;52.604;13.438;2023-12-20T20:15:09;5.74;85.25
13091;DHT22;6611;52.604;13.438;2023-12-20T20:20:12;5.70;85.20
13091;DHT22;6611;52.604;13.438;2023-12-20T20:25:14;5.71;84.11
13091;DHT22;6611;52.604;13.438;2023-12-20T20:30:16;5.77;83.28
13091;DHT22;6611;52.604;13.438;2023-12-20T20:35:19;5.68;83.70
13091;DHT22;6611;52.604;13.438;2023-12-20T20:40:21;5.67;82.88
13091;DHT22;6611;52.604;13.438;2023-12-20T20:45:23;5.61;83.97
13091;DHT22;6611;52.604;13.438;2023-12-20T20:50:26;5.57;83.82
13091;DHT22;6611;52.604;13.438;2023-12-20T20:55:28;5.65;83.46
13091;DHT22;6611;52.604;13.438;2023-12-20T21:00:29;5.71;83.26
13091;DHT22;6611;52.604;13.438;2023-12-20T21:05:33;5.61;83.66
13091;DHT22;6611;52.604;13.438;2023-12-20T21:10:35;5.47;84.58
13091;DHT22;6611;52.604;13.438;2023-12-20T21:15:36;5.51;83.80
13091;DHT22;6611;52.604;13.438;2023-12-20T21:20:39;5.63;83.56
13091;DHT22;6611;52.604;13.438;2023-12-20T21:25:41;5.54;84.14
13091;DHT22;6611;52.604;13.438;2023-12-20T21:30:43;5.53;84.44
13091;DHT22;6611;52.604;13.438;2023-12-20T21:35:46;5.46;84.74
13091;DHT22;6611;52.604;13.438;2023-12-20T21:40:48;5.36;85.75
13091;DHT22;6611;52.604;13.438;2023-12-20T21:45:50;5.35;85.64
13091;DHT22;6611;52.604;13.438;2023-12-20T21:50:53;5.30;86.03
13091;DHT22;6611;52.604;13.438;2023-12-20T21:55:54;5.28;86.12
13091;DHT22;6611;52.604;13.438;2023-12-20T22:00:57;5.28;86.14
13091;DHT22;6611;52.604;13.438;2023-12-20T22:06:00;5.20;86.43
13091;DHT22;6611;52.604;13.438;2023-12-20T22:11:01;5.19;86.10
13091;DHT22;6611;52.604;13.438;2023-12-20T22:16:04;5.16;86.32
13091;DHT22;6611;52.604;13.438;2023-12-20T22:21:09;5.22;86.79
13091;DHT22;6611;52.604;13.438;2023-12-20T22:26:11;5.20;86.59
13091;DHT22;6611;52.604;13.438;2023-12-20T22:31:12;5.19;86.93
13091;DHT22;6611;52.604;13.438;2023-12-20T22:36:16;5.26;86.70
13091;DHT22;6611;52.604;13.438;2023-12-20T22:41:18;5.30;86.64
13091;DHT22;6611;52.604;13.438;2023-12-20T22:46:20;5.20;87.14
13091;DHT22;6611;52.604;13.438;2023-12-20T22:51:24;5.05;86.43
13091;DHT22;6611;52.604;13.438;2023-12-20T22:56:26;5.11;86.55
13091;DHT22;6611;52.604;13.438;2023-12-20T23:01:27;5.09;87.57
13091;DHT22;6611;52.604;13.438;2023-12-20T23:06:31;5.02;87.42
13091;DHT22;6611;52.604;13.438;2023-12-20T23:11:33;4.96;87.50
13091;DHT22;6611;52.604;13.438;2023-12-20T23:16:36;4.92;87.87
13091;DHT22;6611;52.604;13.438;2023-12-20T23:21:39;4.88;87.68
13091;DHT22;6611;52.604;13.438;2023-12-20T23:26:41;4.85;88.34
13091;DHT22;6611;52.604;13.438;2023-12-20T23:31:43;4.91;88.36
13091;DHT22;6611;52.604;13.438;2023-12-20T23:36:45;4.88;88.65
13091;DHT22;6611;52.604;13.438;2023-12-20T23:41:47;4.80;89.26
13091;DHT22;6611;52.604;13.438;2023-12-20T23:46:49;4.74;89.58
13091;DHT22;6611;52.604;13.438;2023-12-20T23:51:52;4.78;89.59
13091;DHT22;6611;52.604;13.438;2023-12-20T23:56:54;4.74;90.01
